sensor_id;sensor_type;location;lat;lon;timestamp;pressure;altitude;pressure_sealevel;temperature;humidity
11268;BME280;49397;47.474;9.416;2023-08-08T00:01:05;95777.31;;;11.99;71.74
11268;BME280;49397;47.474;9.416;2023-08-08T00:03:31;95774.84;;;11.80;73.49
11268;BME280;49397;47.474;9.416;2023-08-08T00:05:56;95781.09;;;11.76;73.87
11268;BME280;49397;47.474;9.416;2023-08-08T00:08:21;95773.97;;;11.71;75.23
11268;BME280;49397;47.474;9.416;2023-08-08T00:10:47;95776.56;;;11.62;74.33
11268;BME280;49397;47.474;9.416;2023-08-08T00:13:12;95776.94;;;11.47;75.65
11268;BME280;49397;47.474;9.416;2023-08-08T00:15:37;95783.78;;;11.40;75.53
11268;BME280;49397;47.474;9.416;2023-08-08T00:18:03;95776.13;;;11.25;76.77
11268;BME280;49397;47.474;9.416;2023-08-08T00:20:29;95774.47;;;11.15;77.92
11268;BME280;49397;47.474;9.416;2023-08-08T00:22:54;95770.78;;;11.11;78.39
11268;BME280;49397;47.474;9.416;2023-08-08T00:25:20;95772.00;;;11.05;77.63
11268;BME280;49397;47.474;9.416;2023-08-08T00:27:45;95775.47;;;11.05;78.13
11268;BME280;49397;47.474;9.416;2023-08-08T00:30:11;95773.28;;;11.07;78.14
11268;BME280;49397;47.474;9.416;2023-08-08T00:32:38;95767.03;;;11.12;78.12
11268;BME280;49397;47.474;9.416;2023-08-08T00:35:04;95763.19;;;11.40;73.07
11268;BME280;49397;47.474;9.416;2023-08-08T00:37:29;95755.66;;;11.64;71.89
11268;BME280;49397;47.474;9.416;2023-08-08T00:39:55;95760.78;;;11.75;72.54
11268;BME280;49397;47.474;9.416;2023-08-08T00:42:20;95755.78;;;11.82;71.36
11268;BME280;49397;47.474;9.416;2023-08-08T00:44:45;95760.84;;;11.83;71.27
11268;BME280;49397;47.474;9.416;2023-08-08T00:47:11;95759.41;;;11.77;73.27
11268;BME280;49397;47.474;9.416;2023-08-08T00:49:37;95762.09;;;11.41;76.45
11268;BME280;49397;47.474;9.416;2023-08-08T00:52:03;95761.94;;;11.24;78.31
11268;BME280;49397;47.474;9.416;2023-08-08T00:54:28;95762.28;;;11.09;77.53
11268;BME280;49397;47.474;9.416;2023-08-08T00:56:54;95759.84;;;10.99;77.20
11268;BME280;49397;47.474;9.416;2023-08-08T00:59:20;95763.50;;;11.03;77.24
11268;BME280;49397;47.474;9.416;2023-08-08T01:01:46;95761.63;;;11.03;76.42
11268;BME280;49397;47.474;9.416;2023-08-08T01:04:12;95758.38;;;10.93;77.04
11268;BME280;49397;47.474;9.416;2023-08-08T01:09:13;95759.75;;;10.90;77.93
11268;BME280;49397;47.474;9.416;2023-08-08T01:11:43;95756.97;;;10.95;79.69
11268;BME280;49397;47.474;9.416;2023-08-08T01:14:09;95755.09;;;10.96;78.95
11268;BME280;49397;47.474;9.416;2023-08-08T01:16:36;95758.84;;;10.95;79.04
11268;BME280;49397;47.474;9.416;2023-08-08T01:19:03;95757.28;;;10.94;79.25
11268;BME280;49397;47.474;9.416;2023-08-08T01:21:33;95753.50;;;10.95;79.82
11268;BME280;49397;47.474;9.416;2023-08-08T01:26:38;95756.28;;;10.90;79.22
11268;BME280;49397;47.474;9.416;2023-08-08T01:29:03;95758.75;;;11.00;77.13
11268;BME280;49397;47.474;9.416;2023-08-08T01:31:28;95753.41;;;11.00;76.53
11268;BME280;49397;47.474;9.416;2023-08-08T01:33:54;95754.56;;;11.07;76.16
11268;BME280;49397;47.474;9.416;2023-08-08T01:36:27;95752.19;;;11.06;76.48
11268;BME280;49397;47.474;9.416;2023-08-08T01:38:58;95757.47;;;10.97;77.89
11268;BME280;49397;47.474;9.416;2023-08-08T01:41:25;95750.16;;;10.89;78.69
11268;BME280;49397;47.474;9.416;2023-08-08T01:43:51;95753.75;;;10.85;79.48
11268;BME280;49397;47.474;9.416;2023-08-08T01:46:17;95752.06;;;10.75;79.65
11268;BME280;49397;47.474;9.416;2023-08-08T01:48:45;95744.63;;;10.72;80.95
11268;BME280;49397;47.474;9.416;2023-08-08T01:51:12;95742.66;;;10.64;79.54
11268;BME280;49397;47.474;9.416;2023-08-08T01:53:37;95742.06;;;10.67;78.75
11268;BME280;49397;47.474;9.416;2023-08-08T01:56:02;95752.44;;;10.82;77.01
11268;BME280;49397;47.474;9.416;2023-08-08T01:58:28;95739.25;;;10.86;76.44
11268;BME280;49397;47.474;9.416;2023-08-08T02:00:53;95736.72;;;10.81;77.43
11268;BME280;49397;47.474;9.416;2023-08-08T02:03:19;95739.41;;;10.67;78.92
11268;BME280;49397;47.474;9.416;2023-08-08T02:05:44;95757.81;;;10.55;80.03
11268;BME280;49397;47.474;9.416;2023-08-08T02:08:09;95763.25;;;10.36;80.93
11268;BME280;49397;47.474;9.416;2023-08-08T02:10:35;95754.75;;;10.21;81.70
11268;BME280;49397;47.474;9.416;2023-08-08T02:13:00;95752.16;;;10.16;81.57
11268;BME280;49397;47.474;9.416;2023-08-08T02:15:25;95751.38;;;10.15;81.54
11268;BME280;49397;47.474;9.416;2023-08-08T02:17:51;95749.63;;;10.24;80.94
11268;BME280;49397;47.474;9.416;2023-08-08T02:20:16;95744.84;;;10.21;80.83
11268;BME280;49397;47.474;9.416;2023-08-08T02:22:43;95747.13;;;10.28;80.39
11268;BME280;49397;47.474;9.416;2023-08-08T02:25:08;95746.44;;;10.22;80.78
11268;BME280;49397;47.474;9.416;2023-08-08T02:27:34;95738.72;;;10.21;80.63
11268;BME280;49397;47.474;9.416;2023-08-08T02:29:59;95737.34;;;10.23;79.52
11268;BME280;49397;47.474;9.416;2023-08-08T02:32:24;95742.56;;;10.28;79.59
11268;BME280;49397;47.474;9.416;2023-08-08T02:34:50;95738.72;;;10.34;78.38
11268;BME280;49397;47.474;9.416;2023-08-08T02:37:15;95744.56;;;10.36;78.33
11268;BME280;49397;47.474;9.416;2023-08-08T02:39:43;95741.38;;;10.34;79.31
11268;BME280;49397;47.474;9.416;2023-08-08T02:42:09;95739.81;;;10.33;78.22
11268;BME280;49397;47.474;9.416;2023-08-08T02:44:34;95739.22;;;10.36;77.37
11268;BME280;49397;47.474;9.416;2023-08-08T02:46:59;95739.72;;;10.38;77.50
11268;BME280;49397;47.474;9.416;2023-08-08T02:49:25;95735.66;;;10.41;78.14
11268;BME280;49397;47.474;9.416;2023-08-08T02:51:50;95735.16;;;10.39;77.70
11268;BME280;49397;47.474;9.416;2023-08-08T02:54:15;95726.75;;;10.32;78.35
11268;BME280;49397;47.474;9.416;2023-08-08T02:56:41;95725.47;;;10.29;78.09
11268;BME280;49397;47.474;9.416;2023-08-08T02:59:06;95730.81;;;10.29;78.54
11268;BME280;49397;47.474;9.416;2023-08-08T03:01:32;95724.97;;;10.27;78.20
11268;BME280;49397;47.474;9.416;2023-08-08T03:03:57;95733.69;;;10.33;78.71
11268;BME280;49397;47.474;9.416;2023-08-08T03:06:22;95726.94;;;10.22;79.08
11268;BME280;49397;47.474;9.416;2023-08-08T03:08:48;95727.34;;;10.15;79.89
11268;BME280;49397;47.474;9.416;2023-08-08T03:11:13;95736.69;;;9.99;80.29
11268;BME280;49397;47.474;9.416;2023-08-08T03:13:38;95732.94;;;10.00;79.65
11268;BME280;49397;47.474;9.416;2023-08-08T03:16:04;95722.94;;;10.05;78.63
11268;BME280;49397;47.474;9.416;2023-08-08T03:18:29;95733.22;;;10.12;78.82
11268;BME280;49397;47.474;9.416;2023-08-08T03:20:54;95727.09;;;10.11;79.78
11268;BME280;49397;47.474;9.416;2023-08-08T03:23:20;95730.47;;;10.03;80.92
11268;BME280;49397;47.474;9.416;2023-08-08T03:25:45;95724.13;;;9.86;82.05
11268;BME280;49397;47.474;9.416;2023-08-08T03:28:11;95725.09;;;9.76;82.34
11268;BME280;49397;47.474;9.416;2023-08-08T03:30:37;95731.59;;;9.70;82.48
11268;BME280;49397;47.474;9.416;2023-08-08T03:33:03;95735.16;;;9.66;83.02
11268;BME280;49397;47.474;9.416;2023-08-08T03:35:29;95738.41;;;9.63;83.30
11268;BME280;49397;47.474;9.416;2023-08-08T03:37:54;95742.44;;;9.60;83.50
11268;BME280;49397;47.474;9.416;2023-08-08T03:40:19;95740.84;;;9.59;83.60
11268;BME280;49397;47.474;9.416;2023-08-08T03:42:45;95741.28;;;9.66;82.87
11268;BME280;49397;47.474;9.416;2023-08-08T03:45:10;95740.38;;;9.71;82.56
11268;BME280;49397;47.474;9.416;2023-08-08T03:47:36;95737.72;;;9.71;82.21
11268;BME280;49397;47.474;9.416;2023-08-08T03:50:01;95740.53;;;9.61;82.39
11268;BME280;49397;47.474;9.416;2023-08-08T03:52:27;95741.13;;;9.57;83.46
11268;BME280;49397;47.474;9.416;2023-08-08T03:54:52;95744.69;;;9.53;83.04
11268;BME280;49397;47.474;9.416;2023-08-08T03:57:18;95748.16;;;9.53;84.05
11268;BME280;49397;47.474;9.416;2023-08-08T03:59:43;95745.19;;;9.55;83.61
11268;BME280;49397;47.474;9.416;2023-08-08T04:02:08;95741.72;;;9.54;84.07
11268;BME280;49397;47.474;9.416;2023-08-08T04:04:34;95736.59;;;9.58;84.18
11268;BME280;49397;47.474;9.416;2023-08-08T04:06:59;95747.19;;;9.63;81.22
11268;BME280;49397;47.474;9.416;2023-08-08T04:09:25;95746.72;;;9.75;80.73
11268;BME280;49397;47.474;9.416;2023-08-08T04:11:50;95746.56;;;9.85;79.70
11268;BME280;49397;47.474;9.416;2023-08-08T04:14:15;95748.63;;;9.88;79.98
11268;BME280;49397;47.474;9.416;2023-08-08T04:16:41;95752.38;;;9.87;79.98
11268;BME280;49397;47.474;9.416;2023-08-08T04:19:06;95745.75;;;9.84;78.92
11268;BME280;49397;47.474;9.416;2023-08-08T04:21:31;95752.47;;;9.82;79.87
11268;BME280;49397;47.474;9.416;2023-08-08T04:23:59;95749.19;;;9.71;81.36
11268;BME280;49397;47.474;9.416;2023-08-08T04:26:25;95753.81;;;9.66;81.29
11268;BME280;49397;47.474;9.416;2023-08-08T04:28:51;95757.78;;;9.68;80.91
11268;BME280;49397;47.474;9.416;2023-08-08T04:31:17;95754.25;;;9.73;80.73
11268;BME280;49397;47.474;9.416;2023-08-08T04:33:42;95752.44;;;9.68;81.87
11268;BME280;49397;47.474;9.416;2023-08-08T04:36:08;95760.81;;;9.62;82.01
11268;BME280;49397;47.474;9.416;2023-08-08T04:38:33;95757.88;;;9.63;81.52
11268;BME280;49397;47.474;9.416;2023-08-08T04:40:58;95763.63;;;9.51;83.01
11268;BME280;49397;47.474;9.416;2023-08-08T04:43:25;95762.22;;;9.40;84.03
11268;BME280;49397;47.474;9.416;2023-08-08T04:45:51;95763.03;;;9.41;83.29
11268;BME280;49397;47.474;9.416;2023-08-08T04:48:17;95756.31;;;9.43;83.20
11268;BME280;49397;47.474;9.416;2023-08-08T04:50:42;95764.53;;;9.47;82.49
11268;BME280;49397;47.474;9.416;2023-08-08T04:53:07;95767.19;;;9.47;82.86
11268;BME280;49397;47.474;9.416;2023-08-08T04:55:33;95768.19;;;9.51;82.88
11268;BME280;49397;47.474;9.416;2023-08-08T04:57:58;95770.13;;;9.45;83.71
11268;BME280;49397;47.474;9.416;2023-08-08T05:00:26;95768.69;;;9.53;83.10
11268;BME280;49397;47.474;9.416;2023-08-08T05:02:51;95779.06;;;9.54;83.42
11268;BME280;49397;47.474;9.416;2023-08-08T05:05:16;95775.75;;;9.63;81.88
11268;BME280;49397;47.474;9.416;2023-08-08T05:07:42;95773.78;;;9.68;81.89
11268;BME280;49397;47.474;9.416;2023-08-08T05:10:07;95774.22;;;9.75;83.14
11268;BME280;49397;47.474;9.416;2023-08-08T05:12:32;95774.03;;;9.85;82.96
11268;BME280;49397;47.474;9.416;2023-08-08T05:14:58;95777.91;;;9.93;81.94
11268;BME280;49397;47.474;9.416;2023-08-08T05:17:23;95780.13;;;10.04;82.35
11268;BME280;49397;47.474;9.416;2023-08-08T05:19:49;95773.25;;;10.17;81.32
11268;BME280;49397;47.474;9.416;2023-08-08T05:22:14;95775.53;;;10.24;79.87
11268;BME280;49397;47.474;9.416;2023-08-08T05:24:39;95777.22;;;10.33;79.82
11268;BME280;49397;47.474;9.416;2023-08-08T05:27:05;95780.56;;;10.39;79.42
11268;BME280;49397;47.474;9.416;2023-08-08T05:29:30;95777.59;;;10.40;79.17
11268;BME280;49397;47.474;9.416;2023-08-08T05:31:56;95781.25;;;10.44;79.14
11268;BME280;49397;47.474;9.416;2023-08-08T05:34:23;95778.78;;;10.48;79.39
11268;BME280;49397;47.474;9.416;2023-08-08T05:36:49;95775.72;;;10.54;78.94
11268;BME280;49397;47.474;9.416;2023-08-08T05:39:14;95777.13;;;10.66;79.13
11268;BME280;49397;47.474;9.416;2023-08-08T05:41:39;95781.06;;;10.68;78.23
11268;BME280;49397;47.474;9.416;2023-08-08T05:44:05;95784.81;;;10.81;78.76
11268;BME280;49397;47.474;9.416;2023-08-08T05:46:30;95779.16;;;10.96;77.46
11268;BME280;49397;47.474;9.416;2023-08-08T05:48:56;95777.47;;;11.00;77.85
11268;BME280;49397;47.474;9.416;2023-08-08T05:51:21;95779.31;;;11.13;78.31
11268;BME280;49397;47.474;9.416;2023-08-08T05:53:46;95775.91;;;11.71;82.54
11268;BME280;49397;47.474;9.416;2023-08-08T05:56:12;95780.66;;;11.60;75.10
11268;BME280;49397;47.474;9.416;2023-08-08T05:58:37;95783.00;;;11.75;76.68
11268;BME280;49397;47.474;9.416;2023-08-08T06:01:03;95787.44;;;12.33;76.03
11268;BME280;49397;47.474;9.416;2023-08-08T06:03:31;95780.19;;;12.81;75.52
11268;BME280;49397;47.474;9.416;2023-08-08T06:05:57;95771.53;;;12.76;72.63
11268;BME280;49397;47.474;9.416;2023-08-08T06:08:23;95774.84;;;12.42;73.42
11268;BME280;49397;47.474;9.416;2023-08-08T06:10:48;95766.31;;;12.31;73.38
11268;BME280;49397;47.474;9.416;2023-08-08T06:13:13;95768.28;;;12.17;74.41
11268;BME280;49397;47.474;9.416;2023-08-08T06:15:39;95772.16;;;12.02;76.07
11268;BME280;49397;47.474;9.416;2023-08-08T06:18:04;95773.66;;;11.95;76.55
11268;BME280;49397;47.474;9.416;2023-08-08T06:20:30;95774.28;;;11.92;77.67
11268;BME280;49397;47.474;9.416;2023-08-08T06:22:55;95764.13;;;12.02;77.46
11268;BME280;49397;47.474;9.416;2023-08-08T06:25:21;95766.50;;;12.35;75.72
11268;BME280;49397;47.474;9.416;2023-08-08T06:27:46;95768.25;;;12.48;76.03
11268;BME280;49397;47.474;9.416;2023-08-08T06:30:11;95767.88;;;12.71;75.56
11268;BME280;49397;47.474;9.416;2023-08-08T06:32:37;95759.38;;;12.78;75.90
11268;BME280;49397;47.474;9.416;2023-08-08T06:35:03;95768.22;;;12.96;72.83
11268;BME280;49397;47.474;9.416;2023-08-08T06:37:28;95757.56;;;13.13;73.14
11268;BME280;49397;47.474;9.416;2023-08-08T06:39:54;95759.47;;;13.30;73.92
11268;BME280;49397;47.474;9.416;2023-08-08T06:42:19;95751.28;;;13.43;72.46
11268;BME280;49397;47.474;9.416;2023-08-08T06:44:44;95758.06;;;13.49;73.35
11268;BME280;49397;47.474;9.416;2023-08-08T06:47:10;95755.38;;;13.58;73.47
11268;BME280;49397;47.474;9.416;2023-08-08T06:49:36;95754.44;;;13.62;74.07
11268;BME280;49397;47.474;9.416;2023-08-08T06:52:02;95758.53;;;13.68;75.31
11268;BME280;49397;47.474;9.416;2023-08-08T06:54:27;95748.56;;;13.69;74.44
11268;BME280;49397;47.474;9.416;2023-08-08T06:56:55;95752.69;;;13.58;72.27
11268;BME280;49397;47.474;9.416;2023-08-08T06:59:22;95751.41;;;13.64;71.60
11268;BME280;49397;47.474;9.416;2023-08-08T07:01:48;95749.34;;;13.69;71.37
11268;BME280;49397;47.474;9.416;2023-08-08T07:04:14;95749.19;;;13.74;70.08
11268;BME280;49397;47.474;9.416;2023-08-08T07:06:40;95745.56;;;13.88;70.90
11268;BME280;49397;47.474;9.416;2023-08-08T07:09:05;95745.19;;;13.98;71.15
11268;BME280;49397;47.474;9.416;2023-08-08T07:11:31;95749.44;;;14.07;71.84
11268;BME280;49397;47.474;9.416;2023-08-08T07:13:56;95752.13;;;14.16;71.65
11268;BME280;49397;47.474;9.416;2023-08-08T07:16:22;95738.03;;;14.10;69.99
11268;BME280;49397;47.474;9.416;2023-08-08T07:18:47;95740.84;;;14.31;69.99
11268;BME280;49397;47.474;9.416;2023-08-08T07:21:12;95739.72;;;14.41;71.35
11268;BME280;49397;47.474;9.416;2023-08-08T07:23:38;95733.19;;;14.50;71.24
11268;BME280;49397;47.474;9.416;2023-08-08T07:26:03;95742.19;;;14.54;71.76
11268;BME280;49397;47.474;9.416;2023-08-08T07:28:28;95731.72;;;14.61;69.87
11268;BME280;49397;47.474;9.416;2023-08-08T07:30:54;95736.69;;;14.51;69.70
11268;BME280;49397;47.474;9.416;2023-08-08T07:33:19;95730.16;;;14.60;70.03
11268;BME280;49397;47.474;9.416;2023-08-08T07:35:44;95734.69;;;14.68;70.23
11268;BME280;49397;47.474;9.416;2023-08-08T07:38:10;95738.72;;;14.83;69.44
11268;BME280;49397;47.474;9.416;2023-08-08T07:40:36;95734.75;;;15.10;70.01
11268;BME280;49397;47.474;9.416;2023-08-08T07:43:01;95736.28;;;15.40;70.59
11268;BME280;49397;47.474;9.416;2023-08-08T07:45:26;95727.19;;;15.45;68.50
11268;BME280;49397;47.474;9.416;2023-08-08T07:47:52;95727.72;;;15.38;69.61
11268;BME280;49397;47.474;9.416;2023-08-08T07:50:17;95727.63;;;15.55;69.28
11268;BME280;49397;47.474;9.416;2023-08-08T07:52:43;95715.72;;;15.56;68.93
11268;BME280;49397;47.474;9.416;2023-08-08T07:55:09;95722.75;;;15.49;69.96
11268;BME280;49397;47.474;9.416;2023-08-08T07:57:34;95718.22;;;15.41;70.40
11268;BME280;49397;47.474;9.416;2023-08-08T08:00:03;95713.22;;;15.51;71.29
11268;BME280;49397;47.474;9.416;2023-08-08T08:02:38;95712.53;;;15.75;69.65
11268;BME280;49397;47.474;9.416;2023-08-08T08:05:04;95712.66;;;15.78;70.07
11268;BME280;49397;47.474;9.416;2023-08-08T08:07:34;95707.69;;;16.01;69.48
11268;BME280;49397;47.474;9.416;2023-08-08T08:10:00;95708.22;;;15.95;69.56
11268;BME280;49397;47.474;9.416;2023-08-08T08:12:26;95712.56;;;15.87;69.10
11268;BME280;49397;47.474;9.416;2023-08-08T08:14:52;95712.28;;;16.13;68.12
11268;BME280;49397;47.474;9.416;2023-08-08T08:17:17;95711.72;;;16.07;70.00
11268;BME280;49397;47.474;9.416;2023-08-08T08:19:42;95706.03;;;16.21;70.89
11268;BME280;49397;47.474;9.416;2023-08-08T08:22:08;95703.13;;;16.38;68.17
11268;BME280;49397;47.474;9.416;2023-08-08T08:24:33;95707.47;;;16.18;68.12
11268;BME280;49397;47.474;9.416;2023-08-08T08:26:59;95704.34;;;16.40;68.78
11268;BME280;49397;47.474;9.416;2023-08-08T08:29:24;95705.50;;;16.52;67.81
11268;BME280;49397;47.474;9.416;2023-08-08T08:31:50;95701.31;;;16.54;68.25
11268;BME280;49397;47.474;9.416;2023-08-08T08:34:15;95703.56;;;16.40;67.92
11268;BME280;49397;47.474;9.416;2023-08-08T08:36:40;95705.38;;;16.72;68.88
11268;BME280;49397;47.474;9.416;2023-08-08T08:39:06;95700.22;;;16.67;67.83
11268;BME280;49397;47.474;9.416;2023-08-08T08:41:31;95700.44;;;16.86;68.07
11268;BME280;49397;47.474;9.416;2023-08-08T08:44:01;95697.16;;;16.93;66.34
11268;BME280;49397;47.474;9.416;2023-08-08T08:46:26;95683.31;;;16.94;65.24
11268;BME280;49397;47.474;9.416;2023-08-08T08:48:54;95683.22;;;17.03;67.11
11268;BME280;49397;47.474;9.416;2023-08-08T08:51:21;95684.66;;;17.13;67.78
11268;BME280;49397;47.474;9.416;2023-08-08T08:53:47;95680.28;;;17.36;66.00
11268;BME280;49397;47.474;9.416;2023-08-08T08:56:16;95675.44;;;17.41;64.53
11268;BME280;49397;47.474;9.416;2023-08-08T08:58:42;95671.19;;;17.68;64.90
11268;BME280;49397;47.474;9.416;2023-08-08T09:01:08;95686.81;;;17.90;62.96
11268;BME280;49397;47.474;9.416;2023-08-08T09:03:35;95685.41;;;18.09;64.22
11268;BME280;49397;47.474;9.416;2023-08-08T09:06:01;95683.13;;;18.26;64.10
11268;BME280;49397;47.474;9.416;2023-08-08T09:08:27;95682.41;;;18.29;64.69
11268;BME280;49397;47.474;9.416;2023-08-08T09:10:53;95680.41;;;17.95;63.04
11268;BME280;49397;47.474;9.416;2023-08-08T09:13:18;95686.44;;;18.20;62.65
11268;BME280;49397;47.474;9.416;2023-08-08T09:15:47;95686.88;;;18.37;63.53
11268;BME280;49397;47.474;9.416;2023-08-08T09:18:12;95683.41;;;18.53;63.07
11268;BME280;49397;47.474;9.416;2023-08-08T09:20:37;95686.28;;;18.44;65.04
11268;BME280;49397;47.474;9.416;2023-08-08T09:23:03;95681.63;;;18.29;63.14
11268;BME280;49397;47.474;9.416;2023-08-08T09:25:28;95693.53;;;18.24;63.11
11268;BME280;49397;47.474;9.416;2023-08-08T09:27:55;95680.59;;;18.33;62.44
11268;BME280;49397;47.474;9.416;2023-08-08T09:30:21;95687.03;;;18.13;64.93
11268;BME280;49397;47.474;9.416;2023-08-08T09:32:46;95685.72;;;18.23;64.98
11268;BME280;49397;47.474;9.416;2023-08-08T09:35:12;95687.19;;;17.89;64.42
11268;BME280;49397;47.474;9.416;2023-08-08T09:37:38;95684.00;;;18.15;64.76
11268;BME280;49397;47.474;9.416;2023-08-08T09:40:05;95683.69;;;17.88;64.82
11268;BME280;49397;47.474;9.416;2023-08-08T09:42:33;95678.31;;;18.04;65.04
11268;BME280;49397;47.474;9.416;2023-08-08T09:44:59;95677.72;;;18.42;63.82
11268;BME280;49397;47.474;9.416;2023-08-08T09:47:25;95671.88;;;18.24;64.09
11268;BME280;49397;47.474;9.416;2023-08-08T09:49:58;95675.38;;;18.25;63.87
11268;BME280;49397;47.474;9.416;2023-08-08T09:52:24;95670.00;;;18.28;64.04
11268;BME280;49397;47.474;9.416;2023-08-08T09:54:51;95656.66;;;18.67;64.03
11268;BME280;49397;47.474;9.416;2023-08-08T09:57:17;95662.53;;;18.69;61.80
11268;BME280;49397;47.474;9.416;2023-08-08T09:59:44;95666.44;;;19.06;61.46
11268;BME280;49397;47.474;9.416;2023-08-08T10:02:14;95654.66;;;19.33;61.46
11268;BME280;49397;47.474;9.416;2023-08-08T10:04:41;95661.91;;;19.29;60.91
11268;BME280;49397;47.474;9.416;2023-08-08T10:07:06;95656.25;;;19.19;60.52
11268;BME280;49397;47.474;9.416;2023-08-08T10:09:32;95658.97;;;19.19;62.01
11268;BME280;49397;47.474;9.416;2023-08-08T10:11:59;95656.09;;;19.12;62.63
11268;BME280;49397;47.474;9.416;2023-08-08T10:14:34;95654.66;;;19.33;63.80
11268;BME280;49397;47.474;9.416;2023-08-08T10:17:02;95660.53;;;19.96;62.61
11268;BME280;49397;47.474;9.416;2023-08-08T10:19:29;95660.50;;;20.38;62.17
11268;BME280;49397;47.474;9.416;2023-08-08T10:22:03;95655.34;;;20.56;57.16
11268;BME280;49397;47.474;9.416;2023-08-08T10:24:35;95660.16;;;20.21;55.71
11268;BME280;49397;47.474;9.416;2023-08-08T10:27:01;95665.16;;;19.96;51.27
11268;BME280;49397;47.474;9.416;2023-08-08T10:29:31;95665.41;;;19.87;54.36
11268;BME280;49397;47.474;9.416;2023-08-08T10:32:04;95670.22;;;19.97;57.01
11268;BME280;49397;47.474;9.416;2023-08-08T10:34:39;95663.53;;;19.91;60.68
11268;BME280;49397;47.474;9.416;2023-08-08T10:37:09;95665.31;;;20.26;58.48
11268;BME280;49397;47.474;9.416;2023-08-08T10:39:34;95655.06;;;20.61;58.49
11268;BME280;49397;47.474;9.416;2023-08-08T10:42:03;95651.28;;;20.69;57.35
11268;BME280;49397;47.474;9.416;2023-08-08T10:44:29;95658.03;;;20.79;57.94
11268;BME280;49397;47.474;9.416;2023-08-08T10:46:55;95659.19;;;20.29;56.82
11268;BME280;49397;47.474;9.416;2023-08-08T10:49:20;95650.22;;;20.74;57.77
11268;BME280;49397;47.474;9.416;2023-08-08T10:51:48;95652.31;;;20.87;56.39
11268;BME280;49397;47.474;9.416;2023-08-08T10:54:24;95649.94;;;20.82;54.12
11268;BME280;49397;47.474;9.416;2023-08-08T10:56:56;95652.47;;;20.98;56.75
11268;BME280;49397;47.474;9.416;2023-08-08T10:59:38;95640.03;;;20.97;55.84
11268;BME280;49397;47.474;9.416;2023-08-08T11:02:04;95643.13;;;21.22;55.51
11268;BME280;49397;47.474;9.416;2023-08-08T11:04:30;95632.38;;;21.32;53.15
11268;BME280;49397;47.474;9.416;2023-08-08T11:06:57;95636.06;;;21.47;53.80
11268;BME280;49397;47.474;9.416;2023-08-08T11:09:23;95635.31;;;21.50;53.15
11268;BME280;49397;47.474;9.416;2023-08-08T11:11:49;95633.44;;;21.24;52.30
11268;BME280;49397;47.474;9.416;2023-08-08T11:14:18;95635.31;;;21.50;54.04
11268;BME280;49397;47.474;9.416;2023-08-08T11:16:45;95628.66;;;21.14;50.46
11268;BME280;49397;47.474;9.416;2023-08-08T11:19:11;95624.34;;;21.43;52.45
11268;BME280;49397;47.474;9.416;2023-08-08T11:21:40;95624.97;;;21.29;51.98
11268;BME280;49397;47.474;9.416;2023-08-08T11:24:06;95631.44;;;21.51;51.18
11268;BME280;49397;47.474;9.416;2023-08-08T11:26:33;95628.72;;;21.51;51.30
11268;BME280;49397;47.474;9.416;2023-08-08T11:28:59;95629.16;;;20.97;51.97
11268;BME280;49397;47.474;9.416;2023-08-08T11:31:26;95619.06;;;21.57;52.58
11268;BME280;49397;47.474;9.416;2023-08-08T11:33:52;95619.88;;;21.94;52.13
11268;BME280;49397;47.474;9.416;2023-08-08T11:36:19;95617.69;;;22.58;51.12
11268;BME280;49397;47.474;9.416;2023-08-08T11:38:45;95617.81;;;22.72;52.16
11268;BME280;49397;47.474;9.416;2023-08-08T11:41:11;95619.88;;;22.89;50.83
11268;BME280;49397;47.474;9.416;2023-08-08T11:43:38;95623.44;;;21.98;49.58
11268;BME280;49397;47.474;9.416;2023-08-08T11:46:08;95615.97;;;21.92;50.78
11268;BME280;49397;47.474;9.416;2023-08-08T11:48:35;95620.88;;;22.16;50.97
11268;BME280;49397;47.474;9.416;2023-08-08T11:51:03;95609.75;;;22.35;50.23
11268;BME280;49397;47.474;9.416;2023-08-08T11:53:29;95618.50;;;22.58;50.87
11268;BME280;49397;47.474;9.416;2023-08-08T11:55:54;95607.88;;;22.46;47.31
11268;BME280;49397;47.474;9.416;2023-08-08T11:58:20;95612.97;;;22.51;51.03
11268;BME280;49397;47.474;9.416;2023-08-08T12:00:48;95601.94;;;22.85;49.42
11268;BME280;49397;47.474;9.416;2023-08-08T12:03:14;95603.28;;;23.15;45.40
11268;BME280;49397;47.474;9.416;2023-08-08T12:05:45;95602.34;;;23.77;47.51
11268;BME280;49397;47.474;9.416;2023-08-08T12:08:11;95598.06;;;23.83;46.98
11268;BME280;49397;47.474;9.416;2023-08-08T12:10:36;95600.50;;;23.08;49.40
11268;BME280;49397;47.474;9.416;2023-08-08T12:13:02;95605.69;;;21.78;51.97
11268;BME280;49397;47.474;9.416;2023-08-08T12:15:35;95604.41;;;22.53;51.44
11268;BME280;49397;47.474;9.416;2023-08-08T12:18:04;95604.81;;;22.51;49.71
11268;BME280;49397;47.474;9.416;2023-08-08T12:20:30;95601.84;;;22.71;49.67
11268;BME280;49397;47.474;9.416;2023-08-08T12:22:57;95595.69;;;22.30;48.02
11268;BME280;49397;47.474;9.416;2023-08-08T12:25:22;95594.13;;;22.80;49.66
11268;BME280;49397;47.474;9.416;2023-08-08T12:27:48;95600.94;;;23.21;49.17
11268;BME280;49397;47.474;9.416;2023-08-08T12:30:13;95593.34;;;23.69;49.25
11268;BME280;49397;47.474;9.416;2023-08-08T12:32:39;95608.09;;;23.47;48.55
11268;BME280;49397;47.474;9.416;2023-08-08T12:35:04;95616.22;;;23.36;47.52
11268;BME280;49397;47.474;9.416;2023-08-08T12:37:31;95611.31;;;22.87;46.66
11268;BME280;49397;47.474;9.416;2023-08-08T12:39:57;95605.34;;;23.40;46.59
11268;BME280;49397;47.474;9.416;2023-08-08T12:42:22;95599.22;;;23.75;47.61
11268;BME280;49397;47.474;9.416;2023-08-08T12:44:47;95599.34;;;23.09;46.47
11268;BME280;49397;47.474;9.416;2023-08-08T12:47:16;95590.00;;;23.07;39.74
11268;BME280;49397;47.474;9.416;2023-08-08T12:49:42;95595.53;;;23.25;40.73
11268;BME280;49397;47.474;9.416;2023-08-08T12:52:07;95600.31;;;23.42;37.35
11268;BME280;49397;47.474;9.416;2023-08-08T12:54:33;95605.72;;;23.38;41.38
11268;BME280;49397;47.474;9.416;2023-08-08T12:56:58;95607.75;;;23.59;41.41
11268;BME280;49397;47.474;9.416;2023-08-08T12:59:23;95586.78;;;24.02;39.87
11268;BME280;49397;47.474;9.416;2023-08-08T13:01:49;95590.72;;;24.22;40.94